• Join FlightAware (Why Join?)
  • Login
  • US Flag 
11:02PM EDT


 

Airport Tracker/Info


-or-


 

Live Flight TrackerFlight Track Log ✈ UAL252 ✈ 07-Aug-2013 ✈ KEWR - KBOS

Flight Track Log - Related Links

Times and Time Zones

All times are in EDT time to prevent confusion due to time zone crossing. See the UAL252 flight status page for this flight to view local times or setup timezone preferences in your user account.

Time Position Orientation Groundspeed Altitude Reporting Facility
EDT Latitude Longitude Course Direction KTS MPH feet Rate Location/Type
06:11AM 40.6500 -74.1833 48° Northeast 172 198 1,800  Level New York TRACON
06:12AM 40.6667 -74.2500 288° West 231 266 3,800 2,700 Climbing New York TRACON
06:13AM 40.7333 -74.2000 30° Northeast 289 333 7,000 1,680 Climbing New York TRACON
06:14AM 40.7667 -74.1167 62° Northeast 289 333 7,000 900 Level New York TRACON
06:16AM 41.1060 -73.5379 56° Northeast  Level FlightAware Approximate
06:16AM 40.8792 -73.9553 47° Northeast 303 349 10,000  Level Boston Center
06:17AM 41.1562 -73.4490 48° Northeast  Level FlightAware Approximate
06:17AM 40.9344 -73.8714 49° Northeast 298 343 12,600  Level Boston Center
06:18AM 40.9964 -73.7683 51° Northeast 308 354 15,800 2,520 Climbing Boston Center
06:19AM 41.0600 -73.6650 51° Northeast 343 395 17,700 1,920 Climbing Boston Center
06:20AM 41.1214 -73.5642 51° Northeast 372 428 19,700 1,620 Climbing Boston Center
06:21AM 41.1914 -73.4525 50° Northeast 383 441 21,000 600 Climbing Boston Center
06:22AM 41.2672 -73.3292 51° Northeast 388 447 20,900  Descending Boston Center
06:23AM 41.3306 -73.2197 52° Northeast 395 455 21,000  Climbing Boston Center
06:24AM 41.3692 -73.0625 72° East 395 455 21,000  Level Boston Center
06:25AM 41.4011 -72.9189 73° East 395 455 21,000  Level Boston Center
06:26AM 41.4328 -72.7722 74° East 400 460 21,000  Level Boston Center
06:27AM 41.4625 -72.6311 74° East 395 455 21,000  Level Boston Center
06:28AM 41.4939 -72.4844 74° East 395 455 21,000  Level Boston Center
06:29AM 41.5250 -72.3403 74° East 395 455 21,000  Level Boston Center
06:30AM 41.5542 -72.2181 72° East 389 448 21,000  Level Boston Center
06:31AM 41.5850 -72.0736 74° East 389 448 21,000 -300 Level Boston Center
06:32AM 41.6156 -71.9264 74° East 396 456 20,400 -840 Descending Boston Center
06:33AM 41.6461 -71.7900 73° East 396 456 19,400 -1,020 Descending Boston Center
06:34AM 41.6767 -71.6508 74° East 391 450 18,400 -1,200 Descending Boston Center
06:35AM 41.7067 -71.5114 74° East 391 450 17,100 -1,800 Descending Boston Center
06:36AM 41.7472 -71.3772 68° East 365 420 14,900 -1,920 Descending Boston Center
06:37AM 41.7900 -71.2761 60° Northeast 352 405 13,300 -1,740 Descending Boston Center
06:38AM 41.8428 -71.1528 60° Northeast 347 399 11,400 -1,440 Descending Boston Center
06:39AM 41.8833 -71.0542 61° Northeast 340 391 10,500 -780 Descending Boston Center
06:40AM 41.9300 -70.9472 60° Northeast 317 365 9,900 -600 Descending Boston Center
06:41AM 41.9683 -70.8625 59° Northeast 299 344 9,400 -540 Descending Boston Center
06:42AM 42.0131 -70.7692 57° Northeast 299 344 8,900 -540 Descending Boston Center
06:43AM 42.0658 -70.6839 50° Northeast 299 344 8,400 -600 Descending Boston Center
06:44AM 42.1253 -70.6122 42° Northeast 289 333 7,800 -840 Descending Boston Center
06:45AM 42.2042 -70.5931 10° North 273 314 6,700 -1,020 Descending Boston Center
06:46AM 42.2786 -70.5711 12° North 273 314 5,800 -960 Descending Boston Center
06:47AM 42.3414 -70.5722 359° North 257 296 4,900 -480 Descending Boston Center
06:48AM 42.3881 -70.6353 315° West 223 257 4,900  Level Boston Center
06:51AM 42.5000 -70.7667 319° Northwest 234 269 5,000  Climbing KA90
06:52AM 42.5500 -70.8167 324° Northwest 237 273 5,000  Level KA90
06:52AM 42.6000 -70.7833 26° Northeast 228 262 5,000  Level KA90
06:53AM 42.6500 -70.7833 360° North 231 266 5,000  Level KA90
06:54AM 42.6500 -70.8500 270° West 230 265 5,000 -420 Level KA90
06:56AM 42.5833 -70.9000 209° Southwest 205 236 4,200 -840 Descending KA90
06:56AM 42.5500 -70.9167 200° South 201 231 3,400 -1,020 Descending KA90
06:58AM 42.4833 -70.9500 200° South 198 228 2,300 -960 Descending KA90
06:59AM 42.4500 -70.9667 200° South 167 192 1,400 -780 Descending KA90
07:00AM 42.4167 -70.9833 200° South 128 147 800 -600 Descending KA90